sensor_id;sensor_type;location;lat;lon;timestamp;P1;durP1;ratioP1;P2;durP2;ratioP2
3259;SDS011;22469;48.150;14.004;2023-02-17T00:01:27;62.30;;;40.17;;
3259;SDS011;22469;48.150;14.004;2023-02-17T00:03:58;59.40;;;38.10;;
3259;SDS011;22469;48.150;14.004;2023-02-17T00:06:27;57.17;;;33.90;;
3259;SDS011;22469;48.150;14.004;2023-02-17T00:08:56;55.73;;;35.10;;
3259;SDS011;22469;48.150;14.004;2023-02-17T00:11:25;57.53;;;39.07;;
3259;SDS011;22469;48.150;14.004;2023-02-17T00:13:54;56.27;;;36.30;;
3259;SDS011;22469;48.150;14.004;2023-02-17T00:16:23;54.70;;;35.67;;
3259;SDS011;22469;48.150;14.004;2023-02-17T00:18:57;54.40;;;36.73;;
3259;SDS011;22469;48.150;14.004;2023-02-17T00:21:28;63.80;;;36.87;;
3259;SDS011;22469;48.150;14.004;2023-02-17T00:23:57;60.67;;;34.73;;
3259;SDS011;22469;48.150;14.004;2023-02-17T00:26:25;56.10;;;35.83;;
3259;SDS011;22469;48.150;14.004;2023-02-17T00:28:52;51.03;;;33.83;;
3259;SDS011;22469;48.150;14.004;2023-02-17T00:31:20;56.20;;;37.90;;
3259;SDS011;22469;48.150;14.004;2023-02-17T00:33:52;55.87;;;35.83;;
3259;SDS011;22469;48.150;14.004;2023-02-17T00:36:21;52.50;;;34.73;;
3259;SDS011;22469;48.150;14.004;2023-02-17T00:38:49;52.60;;;34.77;;
3259;SDS011;22469;48.150;14.004;2023-02-17T00:41:18;62.60;;;35.07;;
3259;SDS011;22469;48.150;14.004;2023-02-17T00:43:45;51.17;;;37.03;;
3259;SDS011;22469;48.150;14.004;2023-02-17T00:46:15;57.20;;;37.70;;
3259;SDS011;22469;48.150;14.004;2023-02-17T00:48:43;64.83;;;38.07;;
3259;SDS011;22469;48.150;14.004;2023-02-17T00:51:11;57.60;;;38.27;;
3259;SDS011;22469;48.150;14.004;2023-02-17T00:53:39;58.87;;;35.30;;
3259;SDS011;22469;48.150;14.004;2023-02-17T00:56:07;58.53;;;39.93;;
3259;SDS011;22469;48.150;14.004;2023-02-17T00:58:34;66.90;;;38.83;;
3259;SDS011;22469;48.150;14.004;2023-02-17T01:01:03;60.43;;;39.50;;
3259;SDS011;22469;48.150;14.004;2023-02-17T01:03:30;54.40;;;38.73;;
3259;SDS011;22469;48.150;14.004;2023-02-17T01:05:58;52.93;;;36.40;;
3259;SDS011;22469;48.150;14.004;2023-02-17T01:08:30;58.80;;;41.10;;
3259;SDS011;22469;48.150;14.004;2023-02-17T01:10:57;55.60;;;37.20;;
3259;SDS011;22469;48.150;14.004;2023-02-17T01:13:24;64.13;;;40.53;;
3259;SDS011;22469;48.150;14.004;2023-02-17T01:15:52;58.27;;;37.03;;
3259;SDS011;22469;48.150;14.004;2023-02-17T01:18:22;54.33;;;39.20;;
3259;SDS011;22469;48.150;14.004;2023-02-17T01:20:50;59.67;;;35.93;;
3259;SDS011;22469;48.150;14.004;2023-02-17T01:23:18;55.20;;;35.40;;
3259;SDS011;22469;48.150;14.004;2023-02-17T01:25:46;59.07;;;37.40;;
3259;SDS011;22469;48.150;14.004;2023-02-17T01:28:17;57.83;;;38.80;;
3259;SDS011;22469;48.150;14.004;2023-02-17T01:30:47;51.23;;;35.20;;
3259;SDS011;22469;48.150;14.004;2023-02-17T01:33:15;54.77;;;35.63;;
3259;SDS011;22469;48.150;14.004;2023-02-17T01:35:42;52.03;;;38.77;;
3259;SDS011;22469;48.150;14.004;2023-02-17T01:38:09;52.70;;;34.73;;
3259;SDS011;22469;48.150;14.004;2023-02-17T01:40:36;64.33;;;39.67;;
3259;SDS011;22469;48.150;14.004;2023-02-17T01:43:14;55.83;;;35.27;;
3259;SDS011;22469;48.150;14.004;2023-02-17T01:45:45;51.37;;;35.03;;
3259;SDS011;22469;48.150;14.004;2023-02-17T01:48:21;49.47;;;35.47;;
3259;SDS011;22469;48.150;14.004;2023-02-17T01:51:20;52.47;;;36.27;;
3259;SDS011;22469;48.150;14.004;2023-02-17T01:56:38;53.97;;;35.17;;
3259;SDS011;22469;48.150;14.004;2023-02-17T01:59:15;54.20;;;37.03;;
3259;SDS011;22469;48.150;14.004;2023-02-17T02:01:47;53.10;;;34.93;;
3259;SDS011;22469;48.150;14.004;2023-02-17T02:04:20;50.10;;;34.93;;
3259;SDS011;22469;48.150;14.004;2023-02-17T02:06:50;53.63;;;34.60;;
3259;SDS011;22469;48.150;14.004;2023-02-17T02:09:19;54.60;;;36.20;;
3259;SDS011;22469;48.150;14.004;2023-02-17T02:11:51;54.97;;;37.47;;
3259;SDS011;22469;48.150;14.004;2023-02-17T02:14:18;57.03;;;38.27;;
3259;SDS011;22469;48.150;14.004;2023-02-17T02:16:53;53.00;;;37.07;;
3259;SDS011;22469;48.150;14.004;2023-02-17T02:35:19;52.27;;;33.57;;
3259;SDS011;22469;48.150;14.004;2023-02-17T02:37:39;54.27;;;34.00;;
3259;SDS011;22469;48.150;14.004;2023-02-17T02:40:26;53.23;;;34.37;;
3259;SDS011;22469;48.150;14.004;2023-02-17T02:42:59;61.07;;;35.13;;
3259;SDS011;22469;48.150;14.004;2023-02-17T02:45:29;52.30;;;34.10;;
3259;SDS011;22469;48.150;14.004;2023-02-17T02:47:57;52.60;;;35.93;;
3259;SDS011;22469;48.150;14.004;2023-02-17T03:03:29;48.63;;;34.13;;
3259;SDS011;22469;48.150;14.004;2023-02-17T03:06:22;55.00;;;35.70;;
3259;SDS011;22469;48.150;14.004;2023-02-17T03:09:02;56.10;;;37.53;;
3259;SDS011;22469;48.150;14.004;2023-02-17T03:11:36;47.83;;;33.00;;
3259;SDS011;22469;48.150;14.004;2023-02-17T03:14:06;52.03;;;34.83;;
3259;SDS011;22469;48.150;14.004;2023-02-17T03:16:37;48.63;;;34.00;;
3259;SDS011;22469;48.150;14.004;2023-02-17T03:19:07;48.63;;;34.60;;
3259;SDS011;22469;48.150;14.004;2023-02-17T03:21:39;46.90;;;33.33;;
3259;SDS011;22469;48.150;14.004;2023-02-17T03:24:12;49.20;;;34.17;;
3259;SDS011;22469;48.150;14.004;2023-02-17T03:26:40;53.00;;;37.50;;
3259;SDS011;22469;48.150;14.004;2023-02-17T03:29:07;58.00;;;36.83;;
3259;SDS011;22469;48.150;14.004;2023-02-17T03:31:34;52.57;;;32.70;;
3259;SDS011;22469;48.150;14.004;2023-02-17T03:34:02;50.77;;;35.20;;
3259;SDS011;22469;48.150;14.004;2023-02-17T03:36:29;47.37;;;34.87;;
3259;SDS011;22469;48.150;14.004;2023-02-17T03:38:57;55.17;;;35.03;;
3259;SDS011;22469;48.150;14.004;2023-02-17T03:41:25;54.00;;;35.23;;
3259;SDS011;22469;48.150;14.004;2023-02-17T03:43:53;51.13;;;36.50;;
3259;SDS011;22469;48.150;14.004;2023-02-17T03:46:20;52.20;;;33.03;;
3259;SDS011;22469;48.150;14.004;2023-02-17T03:48:47;51.57;;;34.17;;
3259;SDS011;22469;48.150;14.004;2023-02-17T03:51:19;48.40;;;33.13;;
3259;SDS011;22469;48.150;14.004;2023-02-17T03:53:49;49.43;;;35.10;;
3259;SDS011;22469;48.150;14.004;2023-02-17T03:56:18;47.47;;;34.83;;
3259;SDS011;22469;48.150;14.004;2023-02-17T03:58:46;45.50;;;33.10;;
3259;SDS011;22469;48.150;14.004;2023-02-17T04:01:13;51.00;;;33.53;;
3259;SDS011;22469;48.150;14.004;2023-02-17T04:03:41;50.00;;;33.20;;
3259;SDS011;22469;48.150;14.004;2023-02-17T04:06:08;53.17;;;34.57;;
3259;SDS011;22469;48.150;14.004;2023-02-17T04:08:37;47.00;;;34.80;;
3259;SDS011;22469;48.150;14.004;2023-02-17T04:11:05;46.20;;;32.90;;
3259;SDS011;22469;48.150;14.004;2023-02-17T04:13:35;51.97;;;33.83;;
3259;SDS011;22469;48.150;14.004;2023-02-17T04:16:03;48.97;;;33.60;;
3259;SDS011;22469;48.150;14.004;2023-02-17T04:18:34;48.27;;;33.50;;
3259;SDS011;22469;48.150;14.004;2023-02-17T04:21:02;56.07;;;35.67;;
3259;SDS011;22469;48.150;14.004;2023-02-17T04:23:29;50.73;;;33.80;;
3259;SDS011;22469;48.150;14.004;2023-02-17T04:25:56;48.00;;;34.00;;
3259;SDS011;22469;48.150;14.004;2023-02-17T04:28:23;48.33;;;32.77;;
3259;SDS011;22469;48.150;14.004;2023-02-17T04:30:51;46.60;;;34.50;;
3259;SDS011;22469;48.150;14.004;2023-02-17T04:33:19;48.40;;;33.97;;
3259;SDS011;22469;48.150;14.004;2023-02-17T04:35:46;51.53;;;33.53;;
3259;SDS011;22469;48.150;14.004;2023-02-17T04:38:13;46.53;;;31.93;;
3259;SDS011;22469;48.150;14.004;2023-02-17T04:40:41;48.73;;;32.50;;
3259;SDS011;22469;48.150;14.004;2023-02-17T04:43:08;47.00;;;32.50;;
3259;SDS011;22469;48.150;14.004;2023-02-17T04:45:36;52.80;;;36.10;;
3259;SDS011;22469;48.150;14.004;2023-02-17T04:48:03;49.53;;;32.50;;
3259;SDS011;22469;48.150;14.004;2023-02-17T04:50:31;46.57;;;32.00;;
3259;SDS011;22469;48.150;14.004;2023-02-17T04:52:58;50.13;;;32.83;;
3259;SDS011;22469;48.150;14.004;2023-02-17T04:55:25;49.87;;;34.17;;
3259;SDS011;22469;48.150;14.004;2023-02-17T04:57:52;46.97;;;32.90;;
3259;SDS011;22469;48.150;14.004;2023-02-17T05:00:20;57.30;;;37.50;;
3259;SDS011;22469;48.150;14.004;2023-02-17T05:02:47;50.87;;;34.80;;
3259;SDS011;22469;48.150;14.004;2023-02-17T05:05:14;53.23;;;35.43;;
3259;SDS011;22469;48.150;14.004;2023-02-17T05:07:44;49.33;;;34.60;;
3259;SDS011;22469;48.150;14.004;2023-02-17T05:10:13;52.30;;;35.07;;
3259;SDS011;22469;48.150;14.004;2023-02-17T05:12:42;53.13;;;34.63;;
3259;SDS011;22469;48.150;14.004;2023-02-17T05:15:10;61.00;;;36.80;;
3259;SDS011;22469;48.150;14.004;2023-02-17T05:17:39;52.30;;;35.77;;
3259;SDS011;22469;48.150;14.004;2023-02-17T05:20:06;48.27;;;34.80;;
3259;SDS011;22469;48.150;14.004;2023-02-17T05:22:34;57.37;;;37.33;;
3259;SDS011;22469;48.150;14.004;2023-02-17T05:25:02;56.73;;;37.13;;
3259;SDS011;22469;48.150;14.004;2023-02-17T05:27:30;50.33;;;37.50;;
3259;SDS011;22469;48.150;14.004;2023-02-17T05:29:58;57.13;;;37.90;;
3259;SDS011;22469;48.150;14.004;2023-02-17T05:32:25;69.60;;;42.30;;
3259;SDS011;22469;48.150;14.004;2023-02-17T05:34:52;63.27;;;39.40;;
3259;SDS011;22469;48.150;14.004;2023-02-17T05:37:19;72.23;;;38.37;;
3259;SDS011;22469;48.150;14.004;2023-02-17T05:39:47;59.67;;;38.07;;
3259;SDS011;22469;48.150;14.004;2023-02-17T05:42:14;56.93;;;36.70;;
3259;SDS011;22469;48.150;14.004;2023-02-17T05:44:41;53.30;;;36.37;;
3259;SDS011;22469;48.150;14.004;2023-02-17T05:47:08;55.43;;;38.77;;
3259;SDS011;22469;48.150;14.004;2023-02-17T05:49:35;61.20;;;39.97;;
3259;SDS011;22469;48.150;14.004;2023-02-17T05:52:02;60.53;;;39.57;;
3259;SDS011;22469;48.150;14.004;2023-02-17T05:54:29;55.93;;;39.00;;
3259;SDS011;22469;48.150;14.004;2023-02-17T05:56:57;58.93;;;41.37;;
3259;SDS011;22469;48.150;14.004;2023-02-17T05:59:24;58.70;;;38.87;;
3259;SDS011;22469;48.150;14.004;2023-02-17T06:01:51;61.27;;;38.20;;
3259;SDS011;22469;48.150;14.004;2023-02-17T06:04:18;54.83;;;38.20;;
3259;SDS011;22469;48.150;14.004;2023-02-17T06:06:45;52.53;;;38.60;;
3259;SDS011;22469;48.150;14.004;2023-02-17T06:09:12;62.10;;;40.63;;
3259;SDS011;22469;48.150;14.004;2023-02-17T06:11:39;52.30;;;38.87;;
3259;SDS011;22469;48.150;14.004;2023-02-17T06:14:07;57.57;;;38.17;;
3259;SDS011;22469;48.150;14.004;2023-02-17T06:16:34;54.20;;;40.30;;
3259;SDS011;22469;48.150;14.004;2023-02-17T06:19:01;50.67;;;37.23;;
3259;SDS011;22469;48.150;14.004;2023-02-17T06:21:30;61.03;;;40.30;;
3259;SDS011;22469;48.150;14.004;2023-02-17T06:23:58;61.90;;;38.37;;
3259;SDS011;22469;48.150;14.004;2023-02-17T06:26:25;64.80;;;43.23;;
3259;SDS011;22469;48.150;14.004;2023-02-17T06:28:52;55.63;;;37.80;;
3259;SDS011;22469;48.150;14.004;2023-02-17T06:31:19;56.17;;;38.73;;
3259;SDS011;22469;48.150;14.004;2023-02-17T06:33:46;52.30;;;37.93;;
3259;SDS011;22469;48.150;14.004;2023-02-17T06:36:14;49.57;;;34.63;;
3259;SDS011;22469;48.150;14.004;2023-02-17T06:38:41;53.13;;;37.80;;
3259;SDS011;22469;48.150;14.004;2023-02-17T06:41:08;56.60;;;39.13;;
3259;SDS011;22469;48.150;14.004;2023-02-17T06:43:35;54.23;;;36.83;;
3259;SDS011;22469;48.150;14.004;2023-02-17T06:46:03;52.43;;;35.60;;
3259;SDS011;22469;48.150;14.004;2023-02-17T06:48:31;48.13;;;35.40;;
3259;SDS011;22469;48.150;14.004;2023-02-17T06:50:59;48.30;;;37.27;;
3259;SDS011;22469;48.150;14.004;2023-02-17T06:53:26;54.97;;;36.07;;
3259;SDS011;22469;48.150;14.004;2023-02-17T06:55:54;52.03;;;36.47;;
3259;SDS011;22469;48.150;14.004;2023-02-17T06:58:24;53.33;;;35.33;;
3259;SDS011;22469;48.150;14.004;2023-02-17T07:00:51;50.00;;;35.80;;
3259;SDS011;22469;48.150;14.004;2023-02-17T07:03:18;58.40;;;41.60;;
3259;SDS011;22469;48.150;14.004;2023-02-17T07:05:45;54.63;;;39.83;;
3259;SDS011;22469;48.150;14.004;2023-02-17T07:08:12;55.80;;;37.57;;
3259;SDS011;22469;48.150;14.004;2023-02-17T07:10:39;48.40;;;33.70;;
3259;SDS011;22469;48.150;14.004;2023-02-17T07:13:07;50.30;;;36.70;;
3259;SDS011;22469;48.150;14.004;2023-02-17T07:15:34;53.07;;;35.50;;
3259;SDS011;22469;48.150;14.004;2023-02-17T07:18:01;47.97;;;34.03;;
3259;SDS011;22469;48.150;14.004;2023-02-17T07:20:28;57.80;;;36.50;;
3259;SDS011;22469;48.150;14.004;2023-02-17T07:23:00;47.10;;;34.53;;
3259;SDS011;22469;48.150;14.004;2023-02-17T07:25:28;47.00;;;34.33;;
3259;SDS011;22469;48.150;14.004;2023-02-17T07:27:55;44.07;;;32.50;;
3259;SDS011;22469;48.150;14.004;2023-02-17T07:30:22;43.23;;;33.10;;
3259;SDS011;22469;48.150;14.004;2023-02-17T07:32:50;48.00;;;32.73;;
3259;SDS011;22469;48.150;14.004;2023-02-17T07:35:17;31.87;;;26.70;;
3259;SDS011;22469;48.150;14.004;2023-02-17T07:37:44;36.20;;;27.40;;
3259;SDS011;22469;48.150;14.004;2023-02-17T07:40:11;34.07;;;26.30;;
3259;SDS011;22469;48.150;14.004;2023-02-17T07:42:38;35.97;;;29.60;;
3259;SDS011;22469;48.150;14.004;2023-02-17T07:45:06;28.40;;;23.30;;
3259;SDS011;22469;48.150;14.004;2023-02-17T07:47:33;24.40;;;19.53;;
3259;SDS011;22469;48.150;14.004;2023-02-17T07:50:00;35.77;;;29.60;;
3259;SDS011;22469;48.150;14.004;2023-02-17T07:52:28;38.53;;;29.40;;
3259;SDS011;22469;48.150;14.004;2023-02-17T07:54:55;30.17;;;23.80;;
3259;SDS011;22469;48.150;14.004;2023-02-17T07:57:22;25.97;;;20.80;;
3259;SDS011;22469;48.150;14.004;2023-02-17T07:59:49;23.40;;;21.00;;
3259;SDS011;22469;48.150;14.004;2023-02-17T08:02:16;21.77;;;19.37;;
3259;SDS011;22469;48.150;14.004;2023-02-17T08:04:44;23.20;;;18.40;;
3259;SDS011;22469;48.150;14.004;2023-02-17T08:07:11;19.93;;;15.37;;
3259;SDS011;22469;48.150;14.004;2023-02-17T08:09:39;17.50;;;13.20;;
3259;SDS011;22469;48.150;14.004;2023-02-17T08:12:25;16.40;;;13.83;;
3259;SDS011;22469;48.150;14.004;2023-02-17T08:15:11;18.60;;;14.50;;
3259;SDS011;22469;48.150;14.004;2023-02-17T08:17:39;14.33;;;12.63;;
3259;SDS011;22469;48.150;14.004;2023-02-17T08:20:07;14.03;;;12.53;;
3259;SDS011;22469;48.150;14.004;2023-02-17T08:22:35;16.63;;;13.87;;
3259;SDS011;22469;48.150;14.004;2023-02-17T08:25:03;16.03;;;13.80;;
3259;SDS011;22469;48.150;14.004;2023-02-17T08:27:31;18.53;;;14.27;;
3259;SDS011;22469;48.150;14.004;2023-02-17T08:29:59;17.03;;;13.33;;
3259;SDS011;22469;48.150;14.004;2023-02-17T08:32:26;16.17;;;12.30;;
3259;SDS011;22469;48.150;14.004;2023-02-17T08:34:56;14.27;;;11.50;;
3259;SDS011;22469;48.150;14.004;2023-02-17T08:37:23;13.10;;;11.20;;
3259;SDS011;22469;48.150;14.004;2023-02-17T08:39:51;11.93;;;10.23;;
3259;SDS011;22469;48.150;14.004;2023-02-17T08:42:19;11.87;;;10.27;;
3259;SDS011;22469;48.150;14.004;2023-02-17T08:44:46;16.60;;;10.87;;
3259;SDS011;22469;48.150;14.004;2023-02-17T08:47:13;23.27;;;14.03;;
3259;SDS011;22469;48.150;14.004;2023-02-17T08:49:40;17.07;;;11.17;;
3259;SDS011;22469;48.150;14.004;2023-02-17T08:52:08;12.67;;;10.80;;
3259;SDS011;22469;48.150;14.004;2023-02-17T08:54:35;19.47;;;12.60;;
3259;SDS011;22469;48.150;14.004;2023-02-17T08:57:03;32.27;;;20.20;;
3259;SDS011;22469;48.150;14.004;2023-02-17T08:59:30;19.00;;;13.30;;
3259;SDS011;22469;48.150;14.004;2023-02-17T09:01:57;20.40;;;14.83;;
3259;SDS011;22469;48.150;14.004;2023-02-17T09:04:24;19.83;;;14.40;;
3259;SDS011;22469;48.150;14.004;2023-02-17T09:06:54;18.07;;;13.67;;
3259;SDS011;22469;48.150;14.004;2023-02-17T09:09:23;14.10;;;11.73;;
3259;SDS011;22469;48.150;14.004;2023-02-17T09:11:55;14.90;;;11.73;;
3259;SDS011;22469;48.150;14.004;2023-02-17T09:14:24;17.30;;;12.10;;
3259;SDS011;22469;48.150;14.004;2023-02-17T09:16:53;13.60;;;10.87;;
3259;SDS011;22469;48.150;14.004;2023-02-17T09:19:22;16.40;;;11.10;;
3259;SDS011;22469;48.150;14.004;2023-02-17T09:21:50;14.80;;;11.40;;
3259;SDS011;22469;48.150;14.004;2023-02-17T09:24:17;12.27;;;10.23;;
3259;SDS011;22469;48.150;14.004;2023-02-17T09:26:45;14.60;;;10.10;;
3259;SDS011;22469;48.150;14.004;2023-02-17T09:29:12;12.87;;;10.07;;
3259;SDS011;22469;48.150;14.004;2023-02-17T09:31:39;13.10;;;10.50;;
3259;SDS011;22469;48.150;14.004;2023-02-17T09:34:07;14.03;;;10.73;;
3259;SDS011;22469;48.150;14.004;2023-02-17T09:36:36;11.30;;;9.90;;
3259;SDS011;22469;48.150;14.004;2023-02-17T09:39:06;15.53;;;10.53;;
3259;SDS011;22469;48.150;14.004;2023-02-17T09:46:52;13.03;;;11.20;;
3259;SDS011;22469;48.150;14.004;2023-02-17T09:49:37;11.83;;;10.70;;
3259;SDS011;22469;48.150;14.004;2023-02-17T09:52:34;12.73;;;10.77;;
3259;SDS011;22469;48.150;14.004;2023-02-17T09:55:15;13.50;;;11.40;;
3259;SDS011;22469;48.150;14.004;2023-02-17T09:57:57;16.87;;;13.10;;
3259;SDS011;22469;48.150;14.004;2023-02-17T10:00:31;11.87;;;10.67;;
3259;SDS011;22469;48.150;14.004;2023-02-17T10:03:42;12.83;;;10.07;;
3259;SDS011;22469;48.150;14.004;2023-02-17T10:09:19;17.57;;;10.43;;
3259;SDS011;22469;48.150;14.004;2023-02-17T10:14:54;11.73;;;8.00;;
3259;SDS011;22469;48.150;14.004;2023-02-17T10:20:27;6.77;;;5.00;;
3259;SDS011;22469;48.150;14.004;2023-02-17T10:23:03;6.77;;;3.90;;
3259;SDS011;22469;48.150;14.004;2023-02-17T10:25:40;3.50;;;3.13;;
3259;SDS011;22469;48.150;14.004;2023-02-17T10:34:35;5.50;;;3.97;;
3259;SDS011;22469;48.150;14.004;2023-02-17T10:38:11;4.87;;;4.40;;
3259;SDS011;22469;48.150;14.004;2023-02-17T10:40:20;7.90;;;3.40;;
3259;SDS011;22469;48.150;14.004;2023-02-17T10:43:00;8.20;;;4.30;;
3259;SDS011;22469;48.150;14.004;2023-02-17T10:45:42;5.87;;;4.23;;
3259;SDS011;22469;48.150;14.004;2023-02-17T10:48:16;6.33;;;4.57;;
3259;SDS011;22469;48.150;14.004;2023-02-17T10:50:54;11.67;;;8.80;;
3259;SDS011;22469;48.150;14.004;2023-02-17T10:53:28;26.83;;;17.03;;
3259;SDS011;22469;48.150;14.004;2023-02-17T11:01:26;6.87;;;2.93;;
3259;SDS011;22469;48.150;14.004;2023-02-17T11:03:58;7.73;;;2.83;;
3259;SDS011;22469;48.150;14.004;2023-02-17T11:06:43;6.10;;;2.70;;
3259;SDS011;22469;48.150;14.004;2023-02-17T11:09:20;3.30;;;3.00;;
3259;SDS011;22469;48.150;14.004;2023-02-17T11:11:59;6.53;;;2.90;;
3259;SDS011;22469;48.150;14.004;2023-02-17T11:14:48;5.33;;;3.20;;
3259;SDS011;22469;48.150;14.004;2023-02-17T11:20:24;6.33;;;2.97;;
3259;SDS011;22469;48.150;14.004;2023-02-17T11:23:07;2.50;;;2.30;;
3259;SDS011;22469;48.150;14.004;2023-02-17T11:25:57;6.43;;;2.47;;
3259;SDS011;22469;48.150;14.004;2023-02-17T11:28:35;3.23;;;2.23;;
3259;SDS011;22469;48.150;14.004;2023-02-17T11:31:02;5.20;;;2.53;;
3259;SDS011;22469;48.150;14.004;2023-02-17T11:33:31;3.27;;;2.97;;
3259;SDS011;22469;48.150;14.004;2023-02-17T11:36:05;4.07;;;2.60;;
3259;SDS011;22469;48.150;14.004;2023-02-17T11:41:06;3.60;;;3.30;;
3259;SDS011;22469;48.150;14.004;2023-02-17T11:43:35;3.13;;;2.43;;
3259;SDS011;22469;48.150;14.004;2023-02-17T11:46:19;4.37;;;2.80;;
3259;SDS011;22469;48.150;14.004;2023-02-17T11:57:57;6.83;;;2.80;;
3259;SDS011;22469;48.150;14.004;2023-02-17T12:01:00;7.27;;;5.23;;
3259;SDS011;22469;48.150;14.004;2023-02-17T12:04:01;5.80;;;5.17;;
3259;SDS011;22469;48.150;14.004;2023-02-17T12:12:50;2.07;;;1.97;;
3259;SDS011;22469;48.150;14.004;2023-02-17T12:15:42;6.10;;;2.00;;
3259;SDS011;22469;48.150;14.004;2023-02-17T12:28:09;11.10;;;8.70;;
3259;SDS011;22469;48.150;14.004;2023-02-17T12:34:27;3.90;;;3.50;;
3259;SDS011;22469;48.150;14.004;2023-02-17T12:37:02;5.90;;;2.60;;
3259;SDS011;22469;48.150;14.004;2023-02-17T12:39:34;2.97;;;2.30;;
3259;SDS011;22469;48.150;14.004;2023-02-17T12:42:25;2.50;;;2.30;;
3259;SDS011;22469;48.150;14.004;2023-02-17T12:45:09;4.10;;;2.60;;
3259;SDS011;22469;48.150;14.004;2023-02-17T12:47:52;3.93;;;2.57;;
3259;SDS011;22469;48.150;14.004;2023-02-17T12:50:57;2.33;;;1.93;;
3259;SDS011;22469;48.150;14.004;2023-02-17T12:53:54;2.03;;;1.90;;
3259;SDS011;22469;48.150;14.004;2023-02-17T12:57:03;2.97;;;2.73;;
3259;SDS011;22469;48.150;14.004;2023-02-17T12:59:45;1.60;;;1.40;;
3259;SDS011;22469;48.150;14.004;2023-02-17T13:02:17;3.70;;;1.53;;
3259;SDS011;22469;48.150;14.004;2023-02-17T13:04:51;4.30;;;2.13;;
3259;SDS011;22469;48.150;14.004;2023-02-17T13:12:59;2.83;;;2.63;;
3259;SDS011;22469;48.150;14.004;2023-02-17T13:15:44;2.17;;;2.07;;
3259;SDS011;22469;48.150;14.004;2023-02-17T13:26:43;2.07;;;1.97;;
3259;SDS011;22469;48.150;14.004;2023-02-17T13:29:18;1.80;;;1.70;;
3259;SDS011;22469;48.150;14.004;2023-02-17T13:32:00;5.13;;;2.13;;
3259;SDS011;22469;48.150;14.004;2023-02-17T13:34:35;4.00;;;1.80;;
3259;SDS011;22469;48.150;14.004;2023-02-17T13:37:18;1.70;;;1.60;;
3259;SDS011;22469;48.150;14.004;2023-02-17T13:40:00;1.77;;;1.67;;
3259;SDS011;22469;48.150;14.004;2023-02-17T13:48:31;3.47;;;2.23;;
3259;SDS011;22469;48.150;14.004;2023-02-17T13:58:37;2.80;;;2.10;;
3259;SDS011;22469;48.150;14.004;2023-02-17T14:01:07;6.43;;;2.67;;
3259;SDS011;22469;48.150;14.004;2023-02-17T14:06:26;4.40;;;2.30;;
3259;SDS011;22469;48.150;14.004;2023-02-17T14:09:17;5.03;;;2.40;;
3259;SDS011;22469;48.150;14.004;2023-02-17T14:12:00;4.87;;;2.10;;
3259;SDS011;22469;48.150;14.004;2023-02-17T14:14:33;2.30;;;2.20;;
3259;SDS011;22469;48.150;14.004;2023-02-17T14:17:04;2.30;;;2.20;;
3259;SDS011;22469;48.150;14.004;2023-02-17T14:20:01;1.80;;;1.70;;
3259;SDS011;22469;48.150;14.004;2023-02-17T14:22:29;1.80;;;1.53;;
3259;SDS011;22469;48.150;14.004;2023-02-17T14:25:07;2.83;;;1.80;;
3259;SDS011;22469;48.150;14.004;2023-02-17T14:27:42;2.40;;;2.00;;
3259;SDS011;22469;48.150;14.004;2023-02-17T14:30:29;3.37;;;2.10;;
3259;SDS011;22469;48.150;14.004;2023-02-17T14:33:03;1.93;;;1.83;;
3259;SDS011;22469;48.150;14.004;2023-02-17T14:35:52;5.37;;;2.40;;
3259;SDS011;22469;48.150;14.004;2023-02-17T14:38:26;2.03;;;1.80;;
3259;SDS011;22469;48.150;14.004;2023-02-17T14:40:58;2.00;;;1.90;;
3259;SDS011;22469;48.150;14.004;2023-02-17T14:43:26;2.07;;;1.90;;
3259;SDS011;22469;48.150;14.004;2023-02-17T14:45:53;5.53;;;2.10;;
3259;SDS011;22469;48.150;14.004;2023-02-17T14:48:21;6.23;;;2.37;;
3259;SDS011;22469;48.150;14.004;2023-02-17T14:50:48;2.13;;;1.80;;
3259;SDS011;22469;48.150;14.004;2023-02-17T14:53:19;2.20;;;1.80;;
3259;SDS011;22469;48.150;14.004;2023-02-17T14:55:53;2.37;;;2.17;;
3259;SDS011;22469;48.150;14.004;2023-02-17T14:58:22;4.00;;;2.50;;
3259;SDS011;22469;48.150;14.004;2023-02-17T15:00:52;3.33;;;3.00;;
3259;SDS011;22469;48.150;14.004;2023-02-17T15:03:19;2.87;;;2.10;;
3259;SDS011;22469;48.150;14.004;2023-02-17T15:05:46;3.97;;;2.33;;
3259;SDS011;22469;48.150;14.004;2023-02-17T15:08:16;30.00;;;16.10;;
3259;SDS011;22469;48.150;14.004;2023-02-17T15:10:47;20.87;;;11.30;;
3259;SDS011;22469;48.150;14.004;2023-02-17T15:13:16;6.97;;;5.90;;
3259;SDS011;22469;48.150;14.004;2023-02-17T15:15:46;3.13;;;2.77;;
3259;SDS011;22469;48.150;14.004;2023-02-17T15:18:18;5.10;;;4.60;;
3259;SDS011;22469;48.150;14.004;2023-02-17T15:20:48;6.43;;;3.83;;
3259;SDS011;22469;48.150;14.004;2023-02-17T15:23:18;4.30;;;2.20;;
3259;SDS011;22469;48.150;14.004;2023-02-17T15:25:50;3.07;;;2.47;;
3259;SDS011;22469;48.150;14.004;2023-02-17T15:28:19;5.37;;;2.70;;
3259;SDS011;22469;48.150;14.004;2023-02-17T15:30:51;3.17;;;2.60;;
3259;SDS011;22469;48.150;14.004;2023-02-17T15:33:20;3.43;;;2.10;;
3259;SDS011;22469;48.150;14.004;2023-02-17T15:35:50;2.30;;;2.20;;
3259;SDS011;22469;48.150;14.004;2023-02-17T15:38:20;2.70;;;2.10;;
3259;SDS011;22469;48.150;14.004;2023-02-17T15:40:51;3.70;;;2.87;;
3259;SDS011;22469;48.150;14.004;2023-02-17T15:43:22;2.60;;;2.40;;
3259;SDS011;22469;48.150;14.004;2023-02-17T15:45:58;3.07;;;2.27;;
3259;SDS011;22469;48.150;14.004;2023-02-17T15:48:26;5.10;;;2.20;;
3259;SDS011;22469;48.150;14.004;2023-02-17T15:50:57;2.80;;;2.60;;
3259;SDS011;22469;48.150;14.004;2023-02-17T15:53:24;3.00;;;1.93;;
3259;SDS011;22469;48.150;14.004;2023-02-17T15:55:51;2.70;;;2.37;;
3259;SDS011;22469;48.150;14.004;2023-02-17T15:58:19;4.27;;;3.33;;
3259;SDS011;22469;48.150;14.004;2023-02-17T16:00:48;5.30;;;2.10;;
3259;SDS011;22469;48.150;14.004;2023-02-17T16:03:16;5.13;;;2.30;;
3259;SDS011;22469;48.150;14.004;2023-02-17T16:05:44;3.07;;;2.33;;
3259;SDS011;22469;48.150;14.004;2023-02-17T16:08:11;4.00;;;2.37;;
3259;SDS011;22469;48.150;14.004;2023-02-17T16:10:38;2.50;;;2.30;;
3259;SDS011;22469;48.150;14.004;2023-02-17T16:13:09;2.27;;;2.10;;
3259;SDS011;22469;48.150;14.004;2023-02-17T16:15:40;6.50;;;2.30;;
3259;SDS011;22469;48.150;14.004;2023-02-17T16:18:12;2.57;;;2.37;;
3259;SDS011;22469;48.150;14.004;2023-02-17T16:20:47;2.97;;;2.67;;
3259;SDS011;22469;48.150;14.004;2023-02-17T16:23:15;2.83;;;2.63;;
3259;SDS011;22469;48.150;14.004;2023-02-17T16:25:43;4.23;;;2.53;;
3259;SDS011;22469;48.150;14.004;2023-02-17T16:28:15;3.00;;;2.80;;
3259;SDS011;22469;48.150;14.004;2023-02-17T16:30:46;3.57;;;2.40;;
3259;SDS011;22469;48.150;14.004;2023-02-17T16:33:15;3.70;;;2.80;;
3259;SDS011;22469;48.150;14.004;2023-02-17T16:35:44;2.23;;;2.00;;
3259;SDS011;22469;48.150;14.004;2023-02-17T16:38:13;5.93;;;3.00;;
3259;SDS011;22469;48.150;14.004;2023-02-17T16:40:49;3.50;;;2.30;;
3259;SDS011;22469;48.150;14.004;2023-02-17T16:43:19;6.83;;;2.70;;
3259;SDS011;22469;48.150;14.004;2023-02-17T16:45:57;4.43;;;4.13;;
3259;SDS011;22469;48.150;14.004;2023-02-17T16:48:37;3.27;;;3.07;;
3259;SDS011;22469;48.150;14.004;2023-02-17T16:51:08;5.67;;;3.60;;
3259;SDS011;22469;48.150;14.004;2023-02-17T16:53:35;7.87;;;4.53;;
3259;SDS011;22469;48.150;14.004;2023-02-17T16:56:05;4.70;;;3.20;;
3259;SDS011;22469;48.150;14.004;2023-02-17T16:58:44;3.30;;;3.10;;